createdAt,value
2023-03-04T00:01:23.203Z,10.00
2023-03-04T00:03:54.051Z,10.43
2023-03-04T00:06:21.971Z,9.73
2023-03-04T00:08:52.133Z,10.30
2023-03-04T00:11:21.397Z,9.73
2023-03-04T00:13:49.266Z,11.43
2023-03-04T00:16:17.233Z,11.20
2023-03-04T00:18:45.218Z,10.47
2023-03-04T00:21:13.156Z,10.03
2023-03-04T00:23:43.331Z,10.87
2023-03-04T00:26:11.284Z,11.37
2023-03-04T00:28:40.966Z,12.37
2023-03-04T00:31:14.118Z,11.10
2023-03-04T00:33:43.511Z,11.10
2023-03-04T00:36:12.073Z,11.00
2023-03-04T00:38:40.001Z,11.43
2023-03-04T00:41:07.983Z,10.57
2023-03-04T00:43:35.955Z,9.00
2023-03-04T00:46:05.563Z,10.90
2023-03-04T00:48:33.471Z,10.30
2023-03-04T00:51:01.525Z,10.87
2023-03-04T00:53:29.544Z,10.70
2023-03-04T00:55:57.496Z,10.63
2023-03-04T00:58:25.484Z,11.07
2023-03-04T01:00:53.464Z,11.43
2023-03-04T01:03:22.767Z,11.60
2023-03-04T01:05:50.708Z,12.60
2023-03-04T01:08:18.645Z,11.53
2023-03-04T01:10:48.536Z,10.97
2023-03-04T01:13:16.504Z,11.97
2023-03-04T01:15:44.644Z,10.87
2023-03-04T01:18:12.726Z,11.50
2023-03-04T01:20:42.134Z,11.50
2023-03-04T01:23:10.048Z,11.27
2023-03-04T01:25:37.935Z,11.40
2023-03-04T01:28:06.014Z,11.00
2023-03-04T01:30:34.908Z,11.53
2023-03-04T01:33:02.789Z,11.50
2023-03-04T01:35:30.746Z,11.63
2023-03-04T01:38:00.095Z,12.17
2023-03-04T01:40:28.353Z,11.50
2023-03-04T01:42:56.492Z,13.23
2023-03-04T01:45:24.608Z,12.00
2023-03-04T01:47:52.909Z,12.30
2023-03-04T01:50:23.803Z,11.47
2023-03-04T01:52:51.878Z,11.13
2023-03-04T01:55:22.930Z,11.60
2023-03-04T01:57:52.447Z,11.87
2023-03-04T02:00:28.216Z,11.50
2023-03-04T02:02:59.448Z,12.13
2023-03-04T02:05:27.520Z,13.13
2023-03-04T02:07:56.483Z,13.23
2023-03-04T02:10:25.833Z,13.00
2023-03-04T02:12:54.297Z,13.37
2023-03-04T02:15:22.528Z,14.07
2023-03-04T02:17:50.786Z,13.23
2023-03-04T02:20:36.937Z,13.57
2023-03-04T02:23:11.326Z,13.37
2023-03-04T02:25:44.410Z,14.00
2023-03-04T02:28:13.844Z,13.80
2023-03-04T02:30:41.854Z,14.77
2023-03-04T02:33:16.103Z,14.20
2023-03-04T02:35:44.174Z,13.97
2023-03-04T02:38:15.393Z,13.33
2023-03-04T02:40:46.628Z,14.33
2023-03-04T02:43:17.147Z,14.90
2023-03-04T02:45:46.367Z,13.47
2023-03-04T02:48:15.759Z,13.97
2023-03-04T02:50:45.420Z,14.77
2023-03-04T02:53:13.464Z,14.40
2023-03-04T02:55:42.337Z,13.57
2023-03-04T02:58:10.836Z,14.10
2023-03-04T03:00:40.561Z,15.13
2023-03-04T03:03:09.479Z,14.73
2023-03-04T03:05:38.740Z,14.20
2023-03-04T03:08:08.113Z,13.23
2023-03-04T03:10:36.420Z,12.80
2023-03-04T03:13:05.288Z,13.27
2023-03-04T03:15:33.214Z,13.70
2023-03-04T03:18:02.553Z,15.47
2023-03-04T03:20:30.444Z,20.03
2023-03-04T03:22:58.372Z,17.80
2023-03-04T03:25:26.298Z,15.97
2023-03-04T03:27:54.930Z,15.53
2023-03-04T03:30:23.053Z,14.37
2023-03-04T03:32:50.928Z,14.83
2023-03-04T03:35:20.641Z,14.93
2023-03-04T03:37:49.368Z,13.03
2023-03-04T03:40:17.527Z,13.57
2023-03-04T03:42:45.872Z,14.00
2023-03-04T03:45:13.853Z,14.60
2023-03-04T03:47:41.760Z,13.47
2023-03-04T03:50:10.538Z,14.57
2023-03-04T03:52:39.846Z,14.77
2023-03-04T03:55:08.215Z,15.17
2023-03-04T03:57:36.138Z,14.83
2023-03-04T04:00:05.381Z,15.23
2023-03-04T04:02:40.326Z,15.20
2023-03-04T04:05:09.819Z,15.37
2023-03-04T04:07:39.138Z,16.10
2023-03-04T04:10:07.473Z,14.57
2023-03-04T04:12:35.579Z,15.77
2023-03-04T04:15:03.513Z,14.70
2023-03-04T04:17:31.459Z,14.97
2023-03-04T04:19:59.452Z,15.83
2023-03-04T04:22:27.414Z,15.30
2023-03-04T04:24:56.722Z,13.87
2023-03-04T04:27:27.751Z,17.33
2023-03-04T04:29:55.711Z,14.40
2023-03-04T04:32:23.770Z,14.90
2023-03-04T04:34:51.715Z,14.10
2023-03-04T04:37:19.593Z,14.97
2023-03-04T04:39:47.550Z,15.00
2023-03-04T04:42:16.799Z,15.40
2023-03-04T04:44:44.685Z,17.67
2023-03-04T04:47:12.546Z,15.93
2023-03-04T04:49:40.726Z,15.83
2023-03-04T04:52:08.591Z,14.10
2023-03-04T04:54:36.464Z,14.27
2023-03-04T04:57:04.649Z,13.50
2023-03-04T04:59:33.933Z,14.47
2023-03-04T05:02:01.778Z,14.13
2023-03-04T05:04:30.440Z,14.77
2023-03-04T05:06:58.451Z,17.23
2023-03-04T05:09:26.328Z,15.67
2023-03-04T05:11:54.626Z,17.10
2023-03-04T05:14:22.541Z,16.07
2023-03-04T05:16:52.929Z,16.30
2023-03-04T05:19:21.019Z,18.40
2023-03-04T05:21:48.933Z,19.30
2023-03-04T05:24:17.028Z,18.60
2023-03-04T05:26:44.889Z,20.10
2023-03-04T05:29:12.790Z,18.87
2023-03-04T05:31:40.740Z,19.10
2023-03-04T05:34:10.211Z,19.47
2023-03-04T05:36:38.104Z,18.50
2023-03-04T05:39:05.999Z,19.17
2023-03-04T05:41:33.948Z,20.47
2023-03-04T05:44:02.175Z,18.93
2023-03-04T05:46:33.152Z,18.43
2023-03-04T05:49:01.355Z,19.20
2023-03-04T05:51:30.596Z,19.20
2023-03-04T05:53:58.616Z,17.83
2023-03-04T05:56:26.502Z,20.40
2023-03-04T05:58:54.384Z,19.03
2023-03-04T06:01:22.230Z,18.90
2023-03-04T06:03:50.459Z,19.20
2023-03-04T06:06:18.413Z,19.47
2023-03-04T06:08:47.679Z,18.00
2023-03-04T06:11:15.601Z,18.37
2023-03-04T06:13:43.503Z,18.07
2023-03-04T06:16:11.579Z,17.17
2023-03-04T06:18:39.504Z,18.47
2023-03-04T06:21:07.897Z,17.50
2023-03-04T06:23:35.898Z,17.20
2023-03-04T06:26:10.111Z,17.10
2023-03-04T06:28:38.000Z,17.70
2023-03-04T06:31:06.616Z,18.43
2023-03-04T06:33:34.706Z,18.77
2023-03-04T06:36:02.722Z,17.93
2023-03-04T06:38:30.618Z,18.50
2023-03-04T06:40:58.823Z,20.37
2023-03-04T06:43:28.139Z,19.40
2023-03-04T06:45:56.007Z,19.70
2023-03-04T06:48:23.914Z,18.57
2023-03-04T06:51:16.977Z,19.33
2023-03-04T06:53:47.032Z,19.43
2023-03-04T06:56:20.278Z,19.20
2023-03-04T06:58:49.605Z,19.47
2023-03-04T07:01:18.834Z,20.70
2023-03-04T07:03:47.016Z,18.73
2023-03-04T07:06:16.832Z,20.80
2023-03-04T07:08:45.083Z,18.17
2023-03-04T07:11:13.540Z,20.40
2023-03-04T07:13:41.478Z,22.07
2023-03-04T07:16:12.991Z,21.90
2023-03-04T07:18:41.165Z,23.13
2023-03-04T07:21:09.380Z,21.77
2023-03-04T07:23:37.794Z,23.10
2023-03-04T07:26:06.151Z,21.40
2023-03-04T07:28:34.159Z,22.87
2023-03-04T07:31:11.349Z,23.07
2023-03-04T07:33:39.326Z,22.97
2023-03-04T07:36:07.611Z,20.83
2023-03-04T07:38:35.496Z,23.07
2023-03-04T07:41:03.380Z,21.73
2023-03-04T07:43:31.331Z,22.43
2023-03-04T07:46:02.392Z,21.83
2023-03-04T07:48:31.779Z,21.47
2023-03-04T07:51:10.864Z,22.97
2023-03-04T07:53:40.499Z,23.93
2023-03-04T07:56:09.792Z,22.13
2023-03-04T07:58:37.672Z,23.37
2023-03-04T08:01:10.645Z,19.83
2023-03-04T08:03:40.270Z,21.27
2023-03-04T08:06:08.770Z,21.03
2023-03-04T08:08:37.044Z,22.27
2023-03-04T08:11:06.410Z,23.47
2023-03-04T08:13:34.335Z,22.30
2023-03-04T08:16:02.305Z,21.93
2023-03-04T08:18:30.265Z,20.80
2023-03-04T08:20:59.556Z,21.13
2023-03-04T08:23:27.412Z,22.70
2023-03-04T08:25:55.607Z,23.90
2023-03-04T08:28:23.485Z,20.87
2023-03-04T08:30:54.681Z,20.77
2023-03-04T08:33:22.638Z,21.30
2023-03-04T08:35:50.525Z,22.70
2023-03-04T08:38:19.900Z,21.93
2023-03-04T08:40:53.501Z,22.97
2023-03-04T08:43:22.582Z,23.10
2023-03-04T08:45:50.520Z,22.20
2023-03-04T08:48:18.746Z,22.00
2023-03-04T08:50:46.832Z,23.27
2023-03-04T08:53:15.136Z,21.37
2023-03-04T08:55:44.577Z,23.60
2023-03-04T08:58:12.711Z,21.50
2023-03-04T09:00:43.946Z,23.00
2023-03-04T09:03:12.942Z,23.87
2023-03-04T09:05:41.200Z,21.97
2023-03-04T09:08:09.126Z,22.07
2023-03-04T09:10:37.051Z,22.20
2023-03-04T09:13:06.356Z,22.10
2023-03-04T09:15:35.741Z,20.50
2023-03-04T09:18:04.079Z,21.93
2023-03-04T09:20:32.637Z,20.63
2023-03-04T09:23:00.651Z,22.23
2023-03-04T09:25:28.835Z,21.53
2023-03-04T09:27:56.999Z,20.00
2023-03-04T09:30:28.021Z,22.53
2023-03-04T09:32:56.739Z,21.00
2023-03-04T09:35:25.012Z,20.67
2023-03-04T09:37:53.661Z,20.20
2023-03-04T09:40:24.303Z,20.37
2023-03-04T09:42:54.438Z,20.33
2023-03-04T09:45:24.218Z,20.23
2023-03-04T09:47:54.683Z,18.93
2023-03-04T09:50:23.910Z,18.67
2023-03-04T09:53:03.620Z,18.10
2023-03-04T09:55:36.098Z,20.30
2023-03-04T09:58:06.328Z,19.23
2023-03-04T10:00:37.491Z,19.53
2023-03-04T10:03:14.049Z,19.63
2023-03-04T10:05:44.763Z,17.70
2023-03-04T10:08:38.173Z,19.63
2023-03-04T10:11:10.985Z,20.10
2023-03-04T10:13:44.150Z,17.67
2023-03-04T10:16:14.553Z,18.87
2023-03-04T10:18:48.186Z,16.50
2023-03-04T10:21:21.102Z,18.20
2023-03-04T10:23:49.822Z,17.83
2023-03-04T10:26:20.839Z,19.00
2023-03-04T10:28:49.128Z,18.20
2023-03-04T10:31:22.918Z,16.50
2023-03-04T10:33:53.563Z,18.03
2023-03-04T10:36:36.170Z,17.10
2023-03-04T10:39:08.251Z,17.13
2023-03-04T10:41:36.272Z,16.77
2023-03-04T10:44:06.134Z,16.93
2023-03-04T10:46:34.014Z,16.40
2023-03-04T10:49:03.201Z,15.40
2023-03-04T10:51:31.699Z,15.67
2023-03-04T10:54:01.563Z,15.80
2023-03-04T10:56:36.807Z,14.70
2023-03-04T10:59:50.666Z,15.57
2023-03-04T11:02:23.306Z,15.97
2023-03-04T11:04:54.572Z,16.27
2023-03-04T11:07:23.147Z,17.17
2023-03-04T11:09:51.137Z,16.80
2023-03-04T11:12:21.774Z,18.57
2023-03-04T11:14:51.092Z,15.10
2023-03-04T11:17:22.547Z,15.90
2023-03-04T11:19:55.783Z,14.00
2023-03-04T11:22:24.947Z,18.40
2023-03-04T11:24:58.789Z,18.60
2023-03-04T11:27:35.650Z,16.00
2023-03-04T11:30:14.540Z,17.43
2023-03-04T11:32:45.362Z,19.13
2023-03-04T11:35:21.699Z,18.27
2023-03-04T11:37:55.000Z,16.87
2023-03-04T11:40:30.385Z,15.73
2023-03-04T11:43:02.832Z,18.13
2023-03-04T11:45:42.500Z,19.20
2023-03-04T11:48:15.640Z,16.60
2023-03-04T11:50:49.937Z,14.30
2023-03-04T11:53:42.163Z,15.23
2023-03-04T11:56:17.975Z,15.87
2023-03-04T11:58:56.362Z,15.90
2023-03-04T12:01:28.893Z,14.97
2023-03-04T12:04:07.785Z,16.00
2023-03-04T12:06:44.826Z,16.10
2023-03-04T12:09:29.884Z,15.23
2023-03-04T12:12:05.425Z,13.53
2023-03-04T12:14:36.186Z,17.67
2023-03-04T12:17:39.522Z,17.50
2023-03-04T12:20:28.807Z,14.60
2023-03-04T12:23:07.117Z,14.80
2023-03-04T12:25:40.858Z,16.30
2023-03-04T12:28:32.663Z,15.30
2023-03-04T12:31:09.090Z,15.70
2023-03-04T12:33:47.266Z,15.10
2023-03-04T12:36:19.601Z,14.37
2023-03-04T12:39:01.888Z,14.90
2023-03-04T12:41:45.055Z,13.77
2023-03-04T12:44:18.189Z,14.17
2023-03-04T12:46:58.907Z,12.93
2023-03-04T12:49:41.316Z,13.13
2023-03-04T12:52:16.222Z,13.80
2023-03-04T12:54:47.612Z,13.50
2023-03-04T12:57:16.739Z,12.00
2023-03-04T12:59:50.528Z,12.80
2023-03-04T13:03:01.031Z,13.00
2023-03-04T13:05:51.374Z,13.47
2023-03-04T13:08:29.706Z,15.00
2023-03-04T13:11:03.795Z,13.83
2023-03-04T13:13:39.814Z,14.20
2023-03-04T13:16:29.615Z,12.90
2023-03-04T13:18:57.597Z,13.47
2023-03-04T13:21:26.983Z,14.47
2023-03-04T13:23:55.441Z,13.97
2023-03-04T13:26:30.890Z,13.13
2023-03-04T13:29:12.343Z,14.20
2023-03-04T13:32:00.847Z,13.63
2023-03-04T13:34:49.474Z,12.87
2023-03-04T13:37:34.832Z,14.17
2023-03-04T13:40:33.522Z,13.80
2023-03-04T13:43:27.765Z,15.67
2023-03-04T13:45:56.198Z,15.83
2023-03-04T13:48:32.877Z,14.43
2023-03-04T13:51:00.862Z,15.07
2023-03-04T13:53:43.466Z,15.10
2023-03-04T13:56:22.636Z,14.67
2023-03-04T13:58:53.890Z,15.43
2023-03-04T14:01:25.870Z,14.20
2023-03-04T14:03:53.793Z,15.67
2023-03-04T14:06:23.788Z,15.47
2023-03-04T14:08:52.870Z,15.50
2023-03-04T14:11:34.622Z,15.80
2023-03-04T14:14:07.408Z,14.17
2023-03-04T14:16:39.754Z,15.57
2023-03-04T14:19:13.899Z,15.23
2023-03-04T14:21:45.993Z,14.33
2023-03-04T14:24:15.255Z,13.17
2023-03-04T14:26:43.189Z,14.23
2023-03-04T14:29:26.444Z,11.90
2023-03-04T14:31:55.400Z,13.70
2023-03-04T14:34:26.756Z,14.40
2023-03-04T14:36:54.703Z,12.53
2023-03-04T14:39:24.852Z,12.40
2023-03-04T14:41:54.566Z,14.27
2023-03-04T14:44:35.747Z,13.53
2023-03-04T14:47:11.100Z,12.63
2023-03-04T14:49:39.747Z,12.50
2023-03-04T14:52:08.074Z,11.20
2023-03-04T14:54:37.969Z,12.83
2023-03-04T14:57:26.101Z,11.70
2023-03-04T14:59:55.832Z,11.63
2023-03-04T15:02:31.373Z,12.07
2023-03-04T15:05:01.547Z,11.80
2023-03-04T15:07:35.334Z,11.90
2023-03-04T15:10:05.611Z,11.43
2023-03-04T15:12:35.742Z,11.60
2023-03-04T15:15:07.054Z,11.17
2023-03-04T15:17:38.748Z,11.10
2023-03-04T15:20:27.300Z,11.70
2023-03-04T15:23:03.126Z,11.90
2023-03-04T15:25:31.892Z,12.60
2023-03-04T15:28:02.606Z,13.90
2023-03-04T15:30:34.629Z,12.90
2023-03-04T15:33:02.706Z,13.37
2023-03-04T15:35:32.469Z,13.53
2023-03-04T15:38:00.779Z,14.53
2023-03-04T15:40:31.128Z,14.17
2023-03-04T15:43:00.968Z,14.00
2023-03-04T15:45:30.958Z,13.57
2023-03-04T15:48:00.139Z,15.77
2023-03-04T15:50:29.426Z,15.07
2023-03-04T15:53:00.028Z,14.00
2023-03-04T15:55:28.315Z,13.70
2023-03-04T15:57:58.188Z,13.70
2023-03-04T16:00:26.280Z,13.07
2023-03-04T16:02:54.147Z,14.53
2023-03-04T16:05:23.341Z,13.43
2023-03-04T16:07:52.449Z,16.33
2023-03-04T16:10:24.705Z,14.10
2023-03-04T16:12:53.098Z,13.43
2023-03-04T16:15:22.311Z,13.07
2023-03-04T16:17:50.350Z,13.33
2023-03-04T16:20:21.518Z,14.10
2023-03-04T16:22:54.136Z,13.90
2023-03-04T16:25:22.580Z,13.23
2023-03-04T16:27:52.432Z,12.70
2023-03-04T16:30:21.878Z,13.00
2023-03-04T16:32:49.832Z,12.93
2023-03-04T16:35:19.306Z,11.83
2023-03-04T16:37:47.249Z,12.73
2023-03-04T16:40:18.029Z,10.53
2023-03-04T16:42:45.911Z,13.60
2023-03-04T16:45:17.530Z,11.50
2023-03-04T16:47:45.807Z,12.20
2023-03-04T16:50:15.284Z,12.50
2023-03-04T16:52:45.560Z,12.90
2023-03-04T16:55:19.423Z,12.47
2023-03-04T16:57:47.482Z,11.97
2023-03-04T17:00:19.872Z,13.17
2023-03-04T17:02:52.929Z,11.53
2023-03-04T17:05:23.170Z,12.40
2023-03-04T17:07:50.960Z,12.70
2023-03-04T17:10:20.794Z,11.73
2023-03-04T17:12:49.790Z,11.80
2023-03-04T17:15:17.742Z,11.87
2023-03-04T17:17:45.965Z,11.80
2023-03-04T17:20:16.630Z,12.03
2023-03-04T17:22:44.948Z,12.20
2023-03-04T17:25:16.123Z,11.47
2023-03-04T17:27:45.471Z,11.80
2023-03-04T17:30:14.686Z,11.20
2023-03-04T17:32:42.494Z,11.30
2023-03-04T17:35:11.277Z,13.10
2023-03-04T17:37:39.478Z,11.53
2023-03-04T17:40:11.265Z,9.43
2023-03-04T17:42:39.141Z,9.90
2023-03-04T17:45:10.692Z,11.77
2023-03-04T17:47:39.228Z,11.37
2023-03-04T17:50:08.872Z,11.30
2023-03-04T17:52:36.689Z,11.83
2023-03-04T17:55:04.679Z,11.27
2023-03-04T17:57:32.576Z,10.73
2023-03-04T18:00:00.936Z,10.20
2023-03-04T18:02:30.352Z,11.07
2023-03-04T18:05:01.230Z,10.80
2023-03-04T18:07:29.263Z,9.73
2023-03-04T18:09:57.799Z,9.67
2023-03-04T18:12:25.998Z,9.60
2023-03-04T18:14:53.831Z,10.17
2023-03-04T18:17:21.723Z,10.30
2023-03-04T18:19:50.921Z,10.00
2023-03-04T18:22:18.818Z,9.40
2023-03-04T18:24:46.780Z,10.27
2023-03-04T18:27:14.659Z,9.90
2023-03-04T18:29:42.614Z,10.20
2023-03-04T18:32:10.508Z,10.50
2023-03-04T18:34:38.336Z,10.30
2023-03-04T18:37:07.663Z,9.60
2023-03-04T18:39:35.466Z,10.00
2023-03-04T18:42:03.459Z,10.50
2023-03-04T18:44:31.343Z,10.27
2023-03-04T18:46:59.418Z,10.80
2023-03-04T18:49:28.235Z,10.63
2023-03-04T18:51:56.060Z,10.30
2023-03-04T18:54:25.307Z,10.20
2023-03-04T18:56:54.460Z,11.40
2023-03-04T18:59:24.241Z,11.23
2023-03-04T19:01:53.265Z,10.13
2023-03-04T19:04:24.896Z,10.50
2023-03-04T19:06:53.035Z,11.13
2023-03-04T19:09:20.936Z,9.57
2023-03-04T19:11:50.198Z,9.33
2023-03-04T19:14:18.096Z,10.30
2023-03-04T19:16:49.021Z,10.17
2023-03-04T19:19:16.868Z,11.83
2023-03-04T19:21:44.764Z,10.40
2023-03-04T19:24:12.864Z,9.40
2023-03-04T19:26:42.482Z,11.97
2023-03-04T19:29:12.167Z,10.90
2023-03-04T19:31:41.491Z,12.47
2023-03-04T19:34:09.621Z,10.97
2023-03-04T19:36:37.501Z,12.80
2023-03-04T19:39:05.577Z,12.17
2023-03-04T19:41:33.517Z,12.20
2023-03-04T19:44:01.309Z,11.57
2023-03-04T19:46:32.279Z,11.93
2023-03-04T19:49:00.333Z,11.30
2023-03-04T19:51:29.130Z,11.60
2023-03-04T19:53:57.266Z,11.50
2023-03-04T19:56:25.220Z,11.77
2023-03-04T19:58:54.244Z,12.00
2023-03-04T20:01:27.819Z,11.93
2023-03-04T20:03:58.294Z,12.80
2023-03-04T20:06:27.149Z,12.90
2023-03-04T20:08:58.266Z,12.27
2023-03-04T20:11:26.603Z,12.33
2023-03-04T20:13:55.063Z,12.47
2023-03-04T20:16:22.971Z,13.20
2023-03-04T20:18:50.817Z,14.17
2023-03-04T20:21:20.154Z,13.70
2023-03-04T20:23:47.992Z,13.90
2023-03-04T20:26:16.001Z,14.53
2023-03-04T20:28:50.875Z,14.40
2023-03-04T20:31:23.850Z,16.20
2023-03-04T20:33:52.538Z,14.63
2023-03-04T20:36:23.296Z,14.43
2023-03-04T20:39:01.519Z,14.73
2023-03-04T20:41:29.926Z,14.40
2023-03-04T20:43:57.790Z,14.63
2023-03-04T20:46:30.827Z,13.70
2023-03-04T20:49:00.357Z,14.53
2023-03-04T20:51:30.192Z,13.17
2023-03-04T20:53:58.564Z,13.60
2023-03-04T20:56:27.020Z,13.53
2023-03-04T20:58:56.064Z,14.23
2023-03-04T21:01:24.446Z,13.43
2023-03-04T21:03:52.396Z,13.83
2023-03-04T21:06:20.465Z,14.97
2023-03-04T21:08:49.644Z,13.50
2023-03-04T21:11:19.902Z,13.10
2023-03-04T21:13:53.819Z,14.43
2023-03-04T21:16:21.748Z,14.23
2023-03-04T21:18:49.832Z,13.70
2023-03-04T21:21:22.072Z,13.83
2023-03-04T21:23:51.917Z,14.13
2023-03-04T21:26:20.709Z,13.33
2023-03-04T21:28:49.137Z,14.77
2023-03-04T21:31:18.302Z,13.47
2023-03-04T21:33:46.902Z,13.33
2023-03-04T21:36:15.127Z,14.80
2023-03-04T21:38:43.713Z,12.80
2023-03-04T21:41:14.393Z,13.43
2023-03-04T21:43:42.282Z,14.07
2023-03-04T21:46:10.961Z,14.50
2023-03-04T21:48:38.999Z,14.40
2023-03-04T21:51:12.773Z,13.30
2023-03-04T21:53:41.033Z,15.07
2023-03-04T21:56:08.989Z,14.27
2023-03-04T21:58:41.561Z,12.90
2023-03-04T22:01:13.163Z,13.60
2023-03-04T22:03:41.093Z,13.40
2023-03-04T22:06:11.029Z,13.70
2023-03-04T22:08:39.879Z,12.67
2023-03-04T22:11:09.146Z,13.93
2023-03-04T22:13:39.009Z,13.23
2023-03-04T22:16:07.813Z,13.90
2023-03-04T22:18:36.288Z,14.03
2023-03-04T22:21:06.137Z,13.30
2023-03-04T22:23:34.576Z,13.60
2023-03-04T22:26:03.438Z,13.60
2023-03-04T22:28:31.805Z,13.37
2023-03-04T22:31:01.956Z,14.40
2023-03-04T22:33:31.253Z,12.30
2023-03-04T22:35:59.976Z,13.70
2023-03-04T22:38:27.955Z,14.23
2023-03-04T22:40:55.851Z,12.90
2023-03-04T22:43:23.762Z,14.63
2023-03-04T22:45:51.627Z,14.13
2023-03-04T22:48:21.159Z,15.03
2023-03-04T22:50:49.010Z,14.60
2023-03-04T22:53:16.929Z,13.77
2023-03-04T22:55:44.797Z,13.73
2023-03-04T22:58:12.872Z,13.87
2023-03-04T23:00:40.776Z,13.73
2023-03-04T23:03:09.699Z,14.37
2023-03-04T23:05:39.553Z,13.70
2023-03-04T23:08:07.648Z,14.60
2023-03-04T23:10:36.070Z,13.93
2023-03-04T23:13:04.881Z,13.33
2023-03-04T23:15:33.428Z,13.43
2023-03-04T23:18:02.069Z,14.20
2023-03-04T23:20:30.482Z,14.90
2023-03-04T23:23:00.540Z,14.07
2023-03-04T23:25:29.159Z,13.73
2023-03-04T23:27:57.840Z,12.90
2023-03-04T23:30:26.412Z,14.70
2023-03-04T23:32:56.617Z,13.03
2023-03-04T23:35:25.108Z,13.80
2023-03-04T23:37:53.441Z,14.77
2023-03-04T23:40:23.359Z,14.50
2023-03-04T23:42:52.023Z,15.57
2023-03-04T23:45:20.613Z,13.90
2023-03-04T23:47:48.922Z,13.93
2023-03-04T23:50:17.818Z,13.10
2023-03-04T23:52:46.115Z,12.20
2023-03-04T23:55:16.805Z,13.20
2023-03-04T23:57:47.750Z,12.80
